Nearby METAR Reports

 

KPMP - Pompano Beach, Florida, USA
Distance from station: NNW 3mi, 5km
Updated: 01/30/2023 2:53am
Partly cloudy
Partly cloudy
 Wind from SE
Wind: SE 8 mph , 13 km/h
Temperature: 75°F , 24°C
Dew Point: 70°F , 21°C
Humidity: 83%
Barometer: 30.14 inHg , 1020.7 hPa
Clouds: Partly cloudy
Visibility: 10 miles , 16 km
Cloud details: Partly cloudy 2100 ft
2023/01/30 07:53 KPMP 300753Z AUTO 13007KT 10SM SCT021 24/21 A3014 RMK AO2 SLP207 T02440206
KFXE - Ft Lauderd/Exec, Florida, USA
Distance from station: W 6mi, 9km
Updated: 01/30/2023 2:53am
Clear
Clear
 Wind from SE
Wind: SE 7 mph , 11 km/h
Temperature: 75°F , 24°C
Dew Point: 70°F , 21°C
Humidity: 83%
Barometer: 30.14 inHg , 1020.7 hPa
Clouds: Clear
Visibility: 10 miles , 16 km
2023/01/30 07:53 KFXE 300753Z 13006KT 10SM CLR 24/21 A3014 RMK AO2 SLP208 T02390211 PNO
 
KFLL - Ft Lauderd/Holly, Florida, USA
Distance from station: SSW 11mi, 17km
Updated: 01/30/2023 2:53am
Partly cloudy
Partly cloudy
 Wind from SE
Wind: SE 10 mph , 17 km/h
Temperature: 75°F , 24°C
Dew Point: 70°F , 21°C
Humidity: 83%
Barometer: 30.13 inHg , 1020.3 hPa
Clouds: Partly cloudy
Visibility: 10 miles , 16 km
Cloud details: Partly cloudy 2100 ft
2023/01/30 07:53 KFLL 300753Z 13009KT 10SM SCT021 24/21 A3013 RMK AO2 SLP203 T02390211
KBCT - Boca Raton, Florida, USA
Distance from station: N 12mi, 19km
Updated: 01/29/2023 10:53pm
NOT Current
Mostly cloudy
Mostly cloudy
 Wind from SE
Wind: SE 8 mph , 13 km/h
Temperature: 75°F , 24°C
Dew Point: 70°F , 21°C
Humidity: 83%
Barometer: 30.20 inHg , 1022.7 hPa
Clouds: Mostly cloudy
Visibility: 10 miles , 16 km
Cloud details: Partly cloudy 2000 ft
Mostly cloudy 2400 ft
2023/01/30 03:53 KBCT 300353Z 13007KT 10SM SCT020 BKN024 24/21 A3020
 
KHWO - Hollywood, Florida, USA
Distance from station: SSW 17mi, 27km
Updated: 01/30/2023 2:53am
Clear
Clear
 Wind from ESE
Wind: ESE 6 mph , 9 km/h
Temperature: 73°F , 23°C
Dew Point: 68°F , 20°C
Humidity: 83%
Barometer: 30.15 inHg , 1021 hPa
Clouds: Clear
Visibility: 10 miles , 16 km
2023/01/30 07:53 KHWO 300753Z 12005KT 10SM CLR 23/20 A3015 RMK AO2 SLP209 T02330200 $
KOPF - Miami/Opa Locka, Florida, USA
Distance from station: SSW 24mi, 38km
Updated: 01/30/2023 2:53am
Clear
Clear
 Wind from ESE
Wind: ESE 6 mph , 9 km/h
Temperature: 73°F , 23°C
Dew Point: 68°F , 20°C
Humidity: 83%
Barometer: 30.14 inHg , 1020.7 hPa
Clouds: Clear
Visibility: 10 miles , 16 km
2023/01/30 07:53 KOPF 300753Z AUTO 11005KT 10SM CLR 23/20 A3014 RMK AO2 SLP208 T02280200
 
KMIA - Miami, Florida, USA
Distance from station: SSW 31mi, 50km
Updated: 01/30/2023 2:53am
Partly cloudy
Partly cloudy
 Wind from ESE
Wind: ESE 9 mph , 15 km/h
Temperature: 75°F , 24°C
Dew Point: 70°F , 21°C
Humidity: 83%
Barometer: 30.14 inHg , 1020.7 hPa
Clouds: Partly cloudy
Visibility: 10 miles , 16 km
Cloud details: Few Clouds 2000 ft
Partly cloudy 4300 ft
2023/01/30 07:53 KMIA 300753Z 11008KT 10SM FEW020 SCT043 24/21 A3014 RMK AO2 SLP205 T02390211 $
KPBI - West Palm Beach, Florida, USA
Distance from station: N 33mi, 52km
Updated: 01/30/2023 2:53am
Light rain, Mostly cloudy
Light rain, Mostly cloudy
 Wind from ESE
Wind: ESE 7 mph , 11 km/h
Temperature: 73°F , 23°C
Dew Point: 70°F , 21°C
Humidity: 89%
Barometer: 30.16 inHg , 1021.3 hPa
Summary: Light rain
Clouds: Mostly cloudy
Visibility: 10 miles , 16 km
Cloud details: Partly cloudy 1900 ft
Mostly cloudy 5500 ft
2023/01/30 07:53 KPBI 300753Z 11006KT 10SM -RA SCT019 BKN055 23/21 A3016 RMK AO2 RAB30 SLP211 P0001 T02280211
 
KTMB - Miami/Tamiami, Florida, USA
Distance from station: SSW 44mi, 71km
Updated: 01/30/2023 2:53am
Mostly cloudy
Mostly cloudy
 Wind from ESE
Wind: ESE 6 mph , 9 km/h
Temperature: 73°F , 23°C
Dew Point: 72°F , 22°C
Humidity: 94%
Barometer: 30.13 inHg , 1020.3 hPa
Clouds: Mostly cloudy
Visibility: 10 miles , 16 km
Cloud details: Mostly cloudy 4200 ft
2023/01/30 07:53 KTMB 300753Z AUTO 11005KT 10SM BKN042 23/22 A3013 RMK AO2 SLP202 T02280217